Time;durP1;ratioP1;P1;durP2;ratioP2;P2;SDS_P1;SDS_P2;PMS_P1;PMS_P2;Temp;Humidity;BMP_temperature;BMP_pressure;BME280_temperature;BME280_humidity;BME280_pressure;Samples;Min_cycle;Max_cycle;Signal;HPM_P1;HPM_P2
2022/01/12 00:01:02;;;;;;;105.32;48.17;;;3.10;99.90;;;;;;5018596;28;20043;-82
2022/01/12 00:03:28;;;;;;;96.43;43.75;;;3.10;99.90;;;;;;5002735;28;20041;-82
2022/01/12 00:05:54;;;;;;;93.00;44.95;;;3.10;99.90;;;;;;5018644;28;20385;-82
2022/01/12 00:08:20;;;;;;;105.80;47.70;;;3.50;99.90;;;;;;4986172;28;20052;-82
2022/01/12 00:10:45;;;;;;;107.75;49.35;;;3.10;99.90;;;;;;5001610;28;20040;-82
2022/01/12 00:13:11;;;;;;;96.90;46.63;;;3.10;99.90;;;;;;5018910;28;20083;-82
2022/01/12 00:15:38;;;;;;;104.55;48.42;;;3.20;99.90;;;;;;5002008;28;20044;-82
2022/01/12 00:18:04;;;;;;;91.97;43.10;;;3.20;99.90;;;;;;5018545;28;20045;-82
2022/01/12 00:20:30;;;;;;;108.20;50.17;;;3.10;99.90;;;;;;5002089;28;20468;-82
2022/01/12 00:22:56;;;;;;;99.45;47.20;;;3.10;99.90;;;;;;5002566;28;20037;-82
2022/01/12 00:25:29;;;;;;;113.88;49.65;;;3.10;99.90;;;;;;5001337;28;20106;-82
2022/01/12 00:33:24;;;;;;;98.45;46.60;;;3.20;99.90;;;;;;5020942;28;20048;-82
2022/01/12 00:35:52;;;;;;;91.35;44.70;;;3.50;99.90;;;;;;5018322;28;20390;-82
2022/01/12 00:38:20;;;;;;;92.65;45.67;;;3.10;99.90;;;;;;5035072;28;20080;-82
2022/01/12 00:40:51;;;;;;;102.80;47.53;;;3.10;99.90;;;;;;5017411;28;20033;-82
2022/01/12 00:43:19;;;;;;;114.30;49.10;;;3.10;99.90;;;;;;5035060;28;20507;-82
2022/01/12 00:45:46;;;;;;;140.75;51.70;;;3.10;99.90;;;;;;5018210;28;20589;-82
2022/01/12 00:48:13;;;;;;;97.28;46.17;;;3.20;99.90;;;;;;5018263;28;20040;-82
2022/01/12 00:50:39;;;;;;;127.68;51.95;;;3.10;99.90;;;;;;5001792;28;20087;-82
2022/01/12 00:53:05;;;;;;;151.52;53.47;;;3.60;99.90;;;;;;5034726;28;20079;-82
2022/01/12 00:55:31;;;;;;;124.97;50.42;;;3.10;99.90;;;;;;5033515;28;20049;-82
2022/01/12 00:57:58;;;;;;;97.03;43.78;;;3.20;99.90;;;;;;5018355;28;20079;-82
2022/01/12 01:00:25;;;;;;;110.38;48.88;;;3.20;99.90;;;;;;5017979;28;20041;-82
2022/01/12 01:02:53;;;;;;;114.15;49.00;;;3.20;99.90;;;;;;5018066;28;20048;-82
2022/01/12 01:05:21;;;;;;;151.25;53.65;;;3.20;99.90;;;;;;5018051;28;20076;-82
2022/01/12 01:07:48;;;;;;;129.00;50.40;;;3.10;99.90;;;;;;5005155;28;20431;-82
2022/01/12 01:10:27;;;;;;;131.48;50.97;;;3.20;99.90;;;;;;5021181;28;20041;-82
2022/01/12 01:12:53;;;;;;;115.50;50.17;;;3.10;99.90;;;;;;5007075;28;20041;-82
2022/01/12 01:15:28;;;;;;;132.70;49.88;;;3.10;99.90;;;;;;5037896;28;20098;-82
2022/01/12 01:26:13;;;;;;;119.60;48.87;;;3.20;99.90;;;;;;5001478;28;20095;-82
2022/01/12 01:28:39;;;;;;;121.55;48.58;;;3.20;99.90;;;;;;5005354;28;20076;-82
2022/01/12 01:31:05;;;;;;;149.30;52.25;;;3.20;99.90;;;;;;4988691;28;20037;-82
2022/01/12 01:33:32;;;;;;;174.50;57.58;;;3.20;99.90;;;;;;4988744;28;20386;-82
2022/01/12 01:35:58;;;;;;;106.20;48.10;;;3.10;99.90;;;;;;5004833;28;20098;-82
2022/01/12 01:38:24;;;;;;;120.93;51.53;;;3.10;99.90;;;;;;5021279;28;20045;-82
2022/01/12 01:40:50;;;;;;;121.93;49.05;;;3.10;99.90;;;;;;5003826;28;20382;-82
2022/01/12 01:43:27;;;;;;;109.07;48.20;;;3.20;99.90;;;;;;4988989;28;20037;-82
2022/01/12 01:54:07;;;;;;;186.95;59.00;;;3.20;99.90;;;;;;5022984;28;20202;-83
2022/01/12 01:56:33;;;;;;;116.65;50.58;;;3.80;99.90;;;;;;5003428;28;20040;-83
2022/01/12 01:58:59;;;;;;;101.00;45.85;;;3.30;99.90;;;;;;5020871;28;20149;-83
2022/01/12 02:01:24;;;;;;;95.53;46.63;;;3.20;99.90;;;;;;5020827;28;20083;-83
2022/01/12 02:03:52;;;;;;;99.18;47.22;;;3.20;99.90;;;;;;5020631;28;20120;-82
2022/01/12 02:06:18;;;;;;;173.30;59.15;;;3.20;99.90;;;;;;5005145;28;20448;-82
2022/01/12 02:08:45;;;;;;;105.18;48.30;;;3.20;99.90;;;;;;4988365;28;20080;-82
2022/01/12 02:11:11;;;;;;;112.32;50.20;;;3.20;99.90;;;;;;5003417;28;20052;-82
2022/01/12 02:13:37;;;;;;;96.57;47.55;;;3.20;99.90;;;;;;5004226;28;20135;-82
2022/01/12 02:16:03;;;;;;;108.95;49.78;;;3.50;99.90;;;;;;5020317;28;20093;-82
2022/01/12 02:35:19;;;;;;;106.55;50.47;;;3.30;99.90;;;;;;5016550;28;20081;-82
2022/01/12 02:40:35;;;;;;;138.30;53.75;;;3.20;99.90;;;;;;5001203;28;20100;-82
2022/01/12 02:43:13;;;;;;;133.00;50.72;;;3.30;99.90;;;;;;5033899;28;20551;-82
2022/01/12 02:53:46;;;;;;;127.40;52.90;;;3.30;99.90;;;;;;4987349;28;20489;-82
2022/01/12 02:56:15;;;;;;;135.20;54.45;;;3.70;99.90;;;;;;4982940;28;20105;-82
2022/01/12 02:58:43;;;;;;;155.60;56.58;;;3.30;99.90;;;;;;5000004;28;20120;-82
2022/01/12 03:03:37;;;;;;;191.30;58.90;;;3.50;99.90;;;;;;5019524;28;20041;-83
2022/01/12 03:06:06;;;;;;;173.07;59.15;;;3.40;99.90;;;;;;5035936;28;20400;-83
2022/01/12 03:08:38;;;;;;;384.90;75.80;;;4.30;99.90;;;;;;4988008;28;20047;-83
2022/01/12 03:11:09;;;;;;;303.83;67.43;;;3.40;99.90;;;;;;5018553;28;20095;-83
2022/01/12 03:13:35;;;;;;;315.35;65.72;;;3.40;99.90;;;;;;5035813;28;20040;-83
2022/01/12 03:16:11;;;;;;;158.32;56.10;;;3.40;99.90;;;;;;5019409;28;20480;-83
2022/01/12 03:18:37;;;;;;;271.15;67.45;;;3.40;99.90;;;;;;5019398;28;20124;-83
2022/01/12 03:21:03;;;;;;;219.52;62.10;;;3.40;99.90;;;;;;5035602;28;20041;-83
2022/01/12 03:23:29;;;;;;;218.45;58.10;;;3.40;99.90;;;;;;5019015;28;20037;-83
2022/01/12 03:25:54;;;;;;;197.45;59.47;;;3.40;99.90;;;;;;5018482;28;20059;-83
2022/01/12 03:28:20;;;;;;;190.00;59.88;;;3.50;99.90;;;;;;5019455;28;20040;-83
2022/01/12 03:31:03;;;;;;;215.13;58.10;;;3.50;99.90;;;;;;5002467;28;20132;-83
2022/01/12 03:36:25;;;;;;;216.25;59.47;;;3.40;99.90;;;;;;5035251;28;20041;-83
2022/01/12 03:38:51;;;;;;;167.90;56.80;;;3.50;99.90;;;;;;5035346;28;20119;-82
2022/01/12 03:41:17;;;;;;;454.77;68.15;;;3.40;99.90;;;;;;5001779;28;20090;-82
2022/01/12 03:43:44;;;;;;;160.30;56.15;;;3.80;99.90;;;;;;5018912;28;20112;-82
2022/01/12 03:46:11;;;;;;;207.43;58.35;;;3.50;99.90;;;;;;5002132;28;20458;-82
2022/01/12 03:48:36;;;;;;;363.83;67.97;;;3.50;99.90;;;;;;5035396;28;20041;-82
2022/01/12 03:51:02;;;;;;;185.82;59.25;;;3.50;99.90;;;;;;5002348;28;20047;-82
2022/01/12 03:53:28;;;;;;;193.30;58.95;;;3.50;99.90;;;;;;5018867;28;20514;-82
2022/01/12 03:55:54;;;;;;;182.90;57.40;;;3.50;99.90;;;;;;5014347;28;20038;-82
2022/01/12 03:58:19;;;;;;;207.73;56.30;;;3.50;99.90;;;;;;4982913;28;20037;-82
2022/01/12 04:00:45;;;;;;;224.70;59.15;;;3.60;99.90;;;;;;4998864;28;20048;-82
2022/01/12 04:03:13;;;;;;;224.15;58.67;;;3.60;99.90;;;;;;4983022;28;20038;-82
2022/01/12 04:08:20;;;;;;;188.02;57.53;;;3.60;99.90;;;;;;4982727;28;20046;-82
2022/01/12 04:10:50;;;;;;;329.92;66.82;;;3.80;99.90;;;;;;4998023;28;20401;-82
2022/01/12 04:13:17;;;;;;;516.97;79.68;;;3.60;99.90;;;;;;4999042;28;20068;-82
2022/01/12 04:15:45;;;;;;;327.98;65.47;;;3.60;99.90;;;;;;4998689;28;20516;-82
2022/01/12 04:18:11;;;;;;;336.35;68.28;;;3.60;99.90;;;;;;5015282;28;20046;-82
2022/01/12 04:20:44;;;;;;;271.85;63.33;;;3.70;99.90;;;;;;5031608;28;20048;-82
2022/01/12 04:23:16;;;;;;;256.65;60.22;;;3.60;99.90;;;;;;4999060;28;20033;-83
2022/01/12 04:25:46;;;;;;;;;;;3.60;99.90;;;;;;4983287;28;20511;-83
2022/01/12 04:28:12;;;;;;;182.15;52.88;;;3.60;99.90;;;;;;5015000;28;19924;-83
2022/01/12 04:30:38;;;;;;;178.45;53.47;;;3.60;99.90;;;;;;5031437;28;20041;-83
2022/01/12 04:33:04;;;;;;;281.48;63.30;;;3.60;99.90;;;;;;4982766;28;20041;-82
2022/01/12 04:35:34;;;;;;;238.77;59.28;;;3.70;99.90;;;;;;4998467;28;20041;-82
2022/01/12 04:37:59;;;;;;;217.60;58.75;;;3.60;99.90;;;;;;4999500;28;20378;-82
2022/01/12 04:40:25;;;;;;;289.40;62.63;;;3.60;99.90;;;;;;4998099;28;20040;-82
2022/01/12 04:42:55;;;;;;;306.20;66.25;;;3.50;99.90;;;;;;5001830;28;20037;-82
2022/01/12 04:50:28;;;;;;;199.40;56.40;;;3.60;99.90;;;;;;5038566;28;20102;-82
2022/01/12 04:52:54;;;;;;;199.15;55.63;;;3.50;99.90;;;;;;5038567;28;20048;-82
2022/01/12 04:55:20;;;;;;;328.38;63.35;;;3.50;99.90;;;;;;5021106;28;20044;-82
2022/01/12 04:57:46;;;;;;;257.63;55.47;;;3.50;99.90;;;;;;5005903;28;20037;-82
2022/01/12 05:00:15;;;;;;;163.45;52.17;;;3.50;99.90;;;;;;5022001;28;20045;-82
2022/01/12 05:13:54;;;;;;;193.73;53.05;;;3.60;99.90;;;;;;5023941;28;20040;-82
2022/01/12 05:16:21;;;;;;;402.25;60.25;;;3.30;99.90;;;;;;5021203;28;20080;-82
2022/01/12 05:18:49;;;;;;;217.98;52.67;;;3.30;99.90;;;;;;5005382;28;20385;-82
2022/01/12 05:21:16;;;;;;;200.43;52.22;;;3.20;99.90;;;;;;5021419;28;20064;-82
2022/01/12 05:23:42;;;;;;;286.73;52.92;;;3.20;99.90;;;;;;5021280;28;20051;-82
2022/01/12 05:26:08;;;;;;;330.92;51.33;;;3.60;99.90;;;;;;5004200;28;20492;-82
2022/01/12 05:28:38;;;;;;;152.40;50.47;;;3.00;99.90;;;;;;5021316;28;20040;-82
2022/01/12 05:31:04;;;;;;;155.60;50.88;;;3.00;99.90;;;;;;5037558;28;20055;-82
2022/01/12 05:33:30;;;;;;;162.02;50.08;;;3.00;99.90;;;;;;5038107;28;20496;-82
2022/01/12 05:35:58;;;;;;;142.25;48.45;;;2.90;99.90;;;;;;5004846;28;20041;-82
2022/01/12 05:38:24;;;;;;;284.80;51.90;;;2.90;99.90;;;;;;5005110;28;20033;-82
2022/01/12 05:40:55;;;;;;;224.57;51.03;;;2.90;99.90;;;;;;5003833;28;20037;-82
2022/01/12 05:43:25;;;;;;;313.25;51.03;;;2.90;99.90;;;;;;5021286;28;20072;-82
2022/01/12 05:45:52;;;;;;;460.98;54.30;;;2.90;99.90;;;;;;5019895;28;20389;-82
2022/01/12 05:50:48;;;;;;;323.83;48.13;;;2.90;99.90;;;;;;5031935;28;20118;-82
2022/01/12 05:53:14;;;;;;;239.35;47.70;;;2.90;99.90;;;;;;5022343;28;20041;-82
2022/01/12 05:55:40;;;;;;;461.08;52.13;;;2.90;99.90;;;;;;5036174;28;20056;-82
2022/01/12 05:58:06;;;;;;;472.27;49.28;;;2.90;99.90;;;;;;5017956;28;20037;-82
2022/01/12 06:00:32;;;;;;;289.40;46.03;;;2.90;99.90;;;;;;5000659;28;20048;-82
2022/01/12 06:02:58;;;;;;;164.13;45.13;;;2.90;99.90;;;;;;5018691;28;20079;-82
2022/01/12 06:05:24;;;;;;;542.28;57.88;;;2.90;99.90;;;;;;5020745;28;20123;-82
2022/01/12 06:07:51;;;;;;;229.23;46.28;;;2.90;99.90;;;;;;5020736;28;20109;-82
2022/01/12 06:10:18;;;;;;;639.55;60.30;;;3.00;99.90;;;;;;5020184;28;20512;-82
2022/01/12 06:12:44;;;;;;;201.27;46.50;;;3.40;99.90;;;;;;5020434;28;20083;-82
2022/01/12 06:15:11;;;;;;;254.48;45.60;;;2.90;99.90;;;;;;5053470;28;20044;-82
2022/01/12 06:17:37;;;;;;;332.50;47.60;;;3.30;99.90;;;;;;5020127;28;20040;-82
2022/01/12 06:20:08;;;;;;;352.88;49.42;;;2.90;99.90;;;;;;5036192;28;20037;-82
2022/01/12 06:22:34;;;;;;;182.73;45.10;;;2.90;99.90;;;;;;5004154;28;20124;-82
2022/01/12 06:25:02;;;;;;;464.83;57.35;;;2.90;99.90;;;;;;5032537;28;20045;-82
2022/01/12 06:27:29;;;;;;;174.73;46.97;;;2.90;99.90;;;;;;5034036;28;20045;-82
2022/01/12 06:32:22;;;;;;;124.00;46.25;;;3.20;99.90;;;;;;5015964;28;20076;-82
2022/01/12 06:34:49;;;;;;;146.35;43.92;;;3.00;99.90;;;;;;5019407;28;20128;-82
2022/01/12 06:37:15;;;;;;;189.82;47.50;;;2.90;99.90;;;;;;5017490;28;20121;-83
2022/01/12 06:39:40;;;;;;;120.20;44.28;;;2.90;99.90;;;;;;5034986;28;20123;-83
2022/01/12 06:42:07;;;;;;;170.88;47.15;;;2.90;99.90;;;;;;5035393;28;20036;-83
2022/01/12 06:44:32;;;;;;;119.95;44.83;;;2.90;99.90;;;;;;5018395;28;20044;-83
2022/01/12 06:47:02;;;;;;;112.57;43.60;;;3.40;99.90;;;;;;4992455;28;20493;-82
2022/01/12 06:49:28;;;;;;;119.28;42.90;;;2.90;99.90;;;;;;4993145;28;20500;-82
2022/01/12 06:51:54;;;;;;;154.07;44.65;;;2.90;99.90;;;;;;5019788;28;20128;-82
2022/01/12 06:54:20;;;;;;;176.23;45.97;;;2.80;99.90;;;;;;5001692;28;20042;-82
2022/01/12 06:56:46;;;;;;;254.65;47.20;;;2.80;99.90;;;;;;4990916;28;20034;-82
2022/01/12 06:59:12;;;;;;;273.45;48.15;;;2.80;99.90;;;;;;5019173;28;20121;-83
2022/01/12 07:01:38;;;;;;;107.07;43.03;;;2.80;99.90;;;;;;5021085;28;20095;-82
2022/01/12 07:04:04;;;;;;;231.48;44.58;;;2.70;99.90;;;;;;4991220;28;20042;-82
2022/01/12 07:06:30;;;;;;;202.10;44.65;;;2.70;99.90;;;;;;4978095;28;20050;-82
2022/01/12 07:08:55;;;;;;;248.25;47.55;;;2.70;99.90;;;;;;4998593;28;20038;-82
2022/01/12 07:11:22;;;;;;;420.65;51.60;;;2.70;99.90;;;;;;5009886;28;20049;-82
2022/01/12 07:13:47;;;;;;;226.75;45.67;;;2.70;99.90;;;;;;5005621;28;20445;-82
2022/01/12 07:16:13;;;;;;;196.57;44.05;;;2.70;99.90;;;;;;5019178;28;20095;-82
2022/01/12 07:18:39;;;;;;;208.07;49.03;;;2.60;99.90;;;;;;5004675;28;20038;-83
2022/01/12 07:21:05;;;;;;;134.15;46.92;;;3.00;99.90;;;;;;5012398;28;20041;-82
2022/01/12 07:23:31;;;;;;;118.70;46.08;;;2.60;99.90;;;;;;5001315;28;20041;-82
2022/01/12 07:25:57;;;;;;;153.48;49.65;;;2.80;99.90;;;;;;5031681;28;20048;-82
2022/01/12 07:28:23;;;;;;;134.77;48.40;;;3.00;99.90;;;;;;5032331;28;20038;-83
2022/01/12 07:30:50;;;;;;;133.15;47.88;;;2.70;99.90;;;;;;5015890;28;20052;-82
2022/01/12 07:33:15;;;;;;;171.25;50.80;;;2.70;99.90;;;;;;5032328;28;20038;-82
2022/01/12 07:35:42;;;;;;;134.77;49.80;;;2.70;99.90;;;;;;5015691;28;20038;-82
2022/01/12 07:38:09;;;;;;;113.57;45.60;;;3.00;99.90;;;;;;4999401;28;20042;-82
2022/01/12 07:40:35;;;;;;;155.43;50.63;;;2.70;99.90;;;;;;5030965;28;20098;-82
2022/01/12 07:43:05;;;;;;;156.40;49.92;;;2.70;99.90;;;;;;5015567;28;20038;-82
2022/01/12 07:45:31;;;;;;;151.60;51.40;;;2.80;99.90;;;;;;5018480;28;20094;-82
2022/01/12 07:47:57;;;;;;;162.38;53.20;;;2.80;99.90;;;;;;5003011;28;20131;-82
2022/01/12 07:50:23;;;;;;;145.57;51.25;;;2.90;99.90;;;;;;5035034;28;20040;-82
2022/01/12 07:52:53;;;;;;;159.85;52.90;;;2.90;99.90;;;;;;5002258;28;20041;-82
2022/01/12 07:55:22;;;;;;;139.00;49.90;;;2.90;99.90;;;;;;5018769;28;20041;-82
2022/01/12 07:57:49;;;;;;;157.05;50.55;;;2.90;99.90;;;;;;5018621;28;20041;-82
2022/01/12 08:00:16;;;;;;;120.45;45.42;;;2.90;99.90;;;;;;5018173;28;20052;-82
2022/01/12 08:02:42;;;;;;;134.10;46.70;;;2.90;99.90;;;;;;5002159;28;20037;-82
2022/01/12 08:05:09;;;;;;;125.18;45.33;;;3.40;99.90;;;;;;5018496;28;20086;-82
2022/01/12 08:07:37;;;;;;;137.20;45.17;;;2.80;99.90;;;;;;5018568;28;20045;-82
2022/01/12 08:10:05;;;;;;;117.72;44.70;;;2.80;99.90;;;;;;5018868;28;20048;-82
2022/01/12 08:12:30;;;;;;;117.47;43.63;;;2.80;99.90;;;;;;5017378;28;20044;-82
2022/01/12 08:14:56;;;;;;;132.48;44.70;;;2.70;99.90;;;;;;5018435;28;20040;-82
2022/01/12 08:17:22;;;;;;;125.30;43.67;;;2.70;99.90;;;;;;5004674;28;20076;-82
2022/01/12 08:19:48;;;;;;;133.40;45.33;;;2.70;99.90;;;;;;5006255;28;20399;-82
2022/01/12 08:22:14;;;;;;;155.60;46.90;;;2.70;99.90;;;;;;5006147;28;20523;-82
2022/01/12 08:24:39;;;;;;;157.32;49.80;;;2.80;99.90;;;;;;5022606;28;20041;-82
2022/01/12 08:27:06;;;;;;;196.55;52.20;;;2.90;99.90;;;;;;5005139;28;20045;-81
2022/01/12 08:29:32;;;;;;;297.70;56.10;;;3.00;99.90;;;;;;5022802;28;20040;-81
2022/01/12 08:31:58;;;;;;;240.88;51.95;;;3.10;99.90;;;;;;5022024;28;20041;-81
2022/01/12 08:34:24;;;;;;;120.15;45.33;;;3.20;99.90;;;;;;5022299;28;20412;-81
2022/01/12 08:36:50;;;;;;;116.78;43.47;;;3.20;99.90;;;;;;5022152;28;20083;-81
2022/01/12 08:39:16;;;;;;;115.20;43.17;;;3.30;99.90;;;;;;5005913;28;20048;-81
2022/01/12 08:41:42;;;;;;;101.10;43.78;;;3.80;99.90;;;;;;5021009;28;20041;-81
2022/01/12 08:44:09;;;;;;;104.13;43.38;;;3.40;99.90;;;;;;5006001;28;20068;-81
2022/01/12 08:46:36;;;;;;;99.40;40.60;;;3.40;99.90;;;;;;5034835;28;20063;-81
2022/01/12 08:49:02;;;;;;;95.63;39.20;;;3.50;99.90;;;;;;5019134;28;20045;-81
2022/01/12 08:51:28;;;;;;;88.88;38.35;;;3.50;99.90;;;;;;5035350;28;20381;-81
2022/01/12 08:53:54;;;;;;;91.18;37.03;;;3.60;99.90;;;;;;5019061;28;20049;-82
2022/01/12 08:56:19;;;;;;;95.47;37.42;;;3.60;99.90;;;;;;5017547;28;20041;-82
2022/01/12 08:58:47;;;;;;;85.80;37.00;;;3.70;99.90;;;;;;5018654;28;20037;-82
2022/01/12 09:01:13;;;;;;;86.25;36.58;;;3.70;99.90;;;;;;5002009;28;20042;-82
2022/01/12 09:03:39;;;;;;;75.15;35.85;;;3.80;99.90;;;;;;5002180;28;20040;-82
2022/01/12 09:06:05;;;;;;;73.32;34.35;;;3.80;99.90;;;;;;5002021;28;20073;-82
2022/01/12 09:08:34;;;;;;;67.50;30.90;;;3.80;99.90;;;;;;5035118;28;20045;-82
2022/01/12 09:11:00;;;;;;;71.25;31.70;;;4.50;99.90;;;;;;5017903;28;20509;-82
2022/01/12 09:13:27;;;;;;;70.78;31.55;;;3.80;99.90;;;;;;5002123;28;20087;-82
2022/01/12 09:15:52;;;;;;;66.82;31.23;;;3.80;99.90;;;;;;5001575;28;20056;-82
2022/01/12 09:18:18;;;;;;;76.05;32.50;;;3.80;99.90;;;;;;5018474;28;20041;-82
2022/01/12 09:20:45;;;;;;;75.90;30.60;;;3.80;99.90;;;;;;5018030;28;20076;-82
2022/01/12 09:23:11;;;;;;;78.72;31.40;;;3.80;99.90;;;;;;5018401;28;20076;-81
2022/01/12 09:25:39;;;;;;;119.40;32.40;;;3.80;99.90;;;;;;5000879;28;20146;-81
2022/01/12 09:28:08;;;;;;;100.13;29.08;;;3.80;99.90;;;;;;5001752;28;20041;-81
2022/01/12 09:30:35;;;;;;;170.15;34.03;;;3.90;99.90;;;;;;5018107;28;20483;-83
2022/01/12 09:33:01;;;;;;;83.95;31.45;;;3.80;99.90;;;;;;5018039;28;20127;-82
2022/01/12 09:35:28;;;;;;;80.53;30.20;;;3.90;99.90;;;;;;5017941;28;20104;-82
2022/01/12 09:37:54;;;;;;;74.63;29.92;;;3.90;99.90;;;;;;5018020;28;20073;-82
2022/01/12 09:40:20;;;;;;;101.30;33.85;;;3.90;99.90;;;;;;5016860;28;20040;-82
2022/01/12 09:42:48;;;;;;;79.85;30.85;;;3.90;99.90;;;;;;5018158;28;20518;-82
2022/01/12 09:45:16;;;;;;;81.28;32.30;;;4.00;99.90;;;;;;5018258;28;20052;-82
2022/01/12 09:47:44;;;;;;;77.07;29.88;;;4.00;99.90;;;;;;5021682;28;20102;-82
2022/01/12 09:50:12;;;;;;;68.28;29.83;;;4.10;99.90;;;;;;5021174;28;20040;-82
2022/01/12 09:52:38;;;;;;;80.50;29.73;;;4.10;99.90;;;;;;5037403;28;20041;-82
2022/01/12 09:55:04;;;;;;;83.97;30.63;;;4.20;99.90;;;;;;5004492;28;20067;-82
2022/01/12 09:57:30;;;;;;;80.90;29.25;;;4.20;99.90;;;;;;5003446;28;20041;-82
2022/01/12 09:59:56;;;;;;;83.43;30.98;;;4.30;99.90;;;;;;5020889;28;20120;-82
2022/01/12 10:02:22;;;;;;;80.47;28.27;;;4.30;99.90;;;;;;5004419;28;20475;-82
2022/01/12 10:05:02;;;;;;;88.28;27.58;;;4.40;99.90;;;;;;5004268;28;20045;-82
2022/01/12 10:07:28;;;;;;;78.97;27.27;;;4.50;99.90;;;;;;5037082;28;20045;-82
2022/01/12 10:10:04;;;;;;;75.88;25.48;;;4.50;99.90;;;;;;5004427;28;20400;-82
2022/01/12 10:12:32;;;;;;;82.32;27.10;;;4.60;99.90;;;;;;5019752;28;20041;-82
2022/01/12 10:15:00;;;;;;;82.07;25.08;;;4.70;99.90;;;;;;5036664;28;20045;-82
2022/01/12 10:17:41;;;;;;;74.82;25.95;;;4.70;99.90;;;;;;5020386;28;20099;-82
2022/01/12 10:20:19;;;;;;;66.88;22.77;;;4.80;99.90;;;;;;5036768;28;20041;-82
2022/01/12 10:22:58;;;;;;;68.40;24.08;;;4.80;99.90;;;;;;5020181;28;20033;-82
2022/01/12 10:25:25;;;;;;;74.47;25.92;;;4.80;99.90;;;;;;5019552;28;20067;-81
2022/01/12 10:27:51;;;;;;;70.55;24.10;;;4.90;99.90;;;;;;5036793;28;20048;-81
2022/01/12 10:30:28;;;;;;;76.82;25.02;;;4.90;99.90;;;;;;5020130;28;20044;-81
2022/01/12 10:33:08;;;;;;;78.28;23.50;;;5.00;99.90;;;;;;5020513;28;20167;-81
2022/01/12 10:35:36;;;;;;;66.38;20.58;;;5.00;99.90;;;;;;5036473;28;20079;-81
2022/01/12 10:38:13;;;;;;;68.45;21.42;;;5.00;99.90;;;;;;5036949;28;20039;-81
2022/01/12 10:40:54;;;;;;;64.13;20.13;;;5.10;99.90;;;;;;5015236;28;20048;-81
2022/01/12 10:43:28;;;;;;;64.45;19.83;;;5.10;99.90;;;;;;5018938;28;20033;-81
2022/01/12 10:45:54;;;;;;;51.75;15.75;;;5.20;99.90;;;;;;5014516;28;20552;-81
2022/01/12 10:48:21;;;;;;;51.00;15.93;;;5.20;99.90;;;;;;4995903;28;20042;-81
2022/01/12 10:50:57;;;;;;;50.55;16.23;;;5.20;99.90;;;;;;5013179;28;20129;-81
2022/01/12 10:53:33;;;;;;;60.25;16.88;;;5.20;99.90;;;;;;4996161;28;20045;-81
2022/01/12 10:56:11;;;;;;;47.28;16.10;;;5.30;99.90;;;;;;5015508;28;20489;-81
2022/01/12 10:58:43;;;;;;;52.22;16.35;;;5.30;99.90;;;;;;5012799;28;20033;-82
2022/01/12 11:01:10;;;;;;;50.92;15.68;;;5.30;99.90;;;;;;5015086;28;20495;-82
2022/01/12 11:03:37;;;;;;;48.03;15.75;;;5.30;99.90;;;;;;5030660;28;20037;-81
2022/01/12 11:06:05;;;;;;;53.95;15.95;;;5.30;99.90;;;;;;4997404;28;20041;-81
2022/01/12 11:08:31;;;;;;;44.45;15.35;;;5.40;99.90;;;;;;5014968;28;20393;-82
2022/01/12 11:10:59;;;;;;;44.63;15.35;;;5.40;99.90;;;;;;5014646;28;20045;-82
2022/01/12 11:13:26;;;;;;;46.42;14.93;;;5.30;99.90;;;;;;5012745;28;20037;-82
2022/01/12 11:15:53;;;;;;;41.38;14.85;;;5.30;99.90;;;;;;5023167;28;20045;-82
2022/01/12 11:18:27;;;;;;;45.08;15.05;;;5.40;99.90;;;;;;5014576;28;20045;-82
2022/01/12 11:20:59;;;;;;;41.03;13.98;;;5.40;99.90;;;;;;5011836;28;20033;-81
2022/01/12 11:23:37;;;;;;;55.83;14.85;;;5.30;99.90;;;;;;5029984;28;20088;-81
2022/01/12 11:26:22;;;;;;;55.60;15.93;;;5.30;99.90;;;;;;5014321;28;20404;-81
2022/01/12 11:28:51;;;;;;;51.72;15.15;;;5.40;99.90;;;;;;5002859;28;20034;-81
2022/01/12 11:31:29;;;;;;;47.53;15.07;;;5.40;99.90;;;;;;5028411;28;20042;-81
2022/01/12 11:33:55;;;;;;;43.85;15.05;;;5.40;99.90;;;;;;5015932;28;20045;-81
2022/01/12 11:36:40;;;;;;;50.83;13.90;;;5.50;99.90;;;;;;4994332;28;20077;-81
2022/01/12 11:39:11;;;;;;;44.53;13.40;;;5.40;99.90;;;;;;5031150;28;20080;-81
2022/01/12 11:41:43;;;;;;;44.57;13.37;;;5.50;99.90;;;;;;5029496;28;20041;-81
2022/01/12 11:44:12;;;;;;;51.85;13.88;;;5.50;99.90;;;;;;5031034;28;20041;-81
2022/01/12 11:46:47;;;;;;;46.22;14.40;;;5.50;99.90;;;;;;5031323;28;20505;-82
2022/01/12 11:49:24;;;;;;;50.58;14.32;;;5.50;99.90;;;;;;5014829;28;20045;-81
2022/01/12 11:51:50;;;;;;;55.33;16.13;;;5.60;99.90;;;;;;5032084;28;20041;-81
2022/01/12 11:54:18;;;;;;;49.20;16.75;;;5.60;99.90;;;;;;5015493;28;20052;-81
2022/01/12 11:56:52;;;;;;;49.50;16.55;;;5.70;99.90;;;;;;5030886;28;20041;-81
2022/01/12 11:59:19;;;;;;;53.13;16.23;;;5.80;99.90;;;;;;5015381;28;20135;-82
2022/01/12 12:01:53;;;;;;;52.22;16.42;;;5.80;99.90;;;;;;5015426;28;20485;-81
2022/01/12 12:04:30;;;;;;;47.38;16.15;;;5.70;99.90;;;;;;5031943;28;20052;-81
2022/01/12 12:07:04;;;;;;;37.40;15.30;;;5.80;99.90;;;;;;5031746;28;20037;-81
2022/01/12 12:09:43;;;;;;;46.38;15.35;;;5.80;99.90;;;;;;5031861;28;20037;-81
2022/01/12 12:12:18;;;;;;;41.80;15.55;;;5.70;99.90;;;;;;5030750;28;20176;-81
2022/01/12 12:14:47;;;;;;;38.78;14.45;;;5.70;99.90;;;;;;5031709;28;20049;-81
2022/01/12 12:17:13;;;;;;;41.58;15.25;;;5.70;99.90;;;;;;5015291;28;20042;-82
2022/01/12 12:19:39;;;;;;;42.20;15.90;;;5.80;99.90;;;;;;5031872;28;20029;-82
2022/01/12 12:22:10;;;;;;;48.67;15.68;;;5.80;99.90;;;;;;4998423;28;20072;-82
2022/01/12 12:24:36;;;;;;;37.90;13.67;;;5.80;99.90;;;;;;5028952;28;20041;-82
2022/01/12 12:27:02;;;;;;;39.05;13.73;;;5.80;99.90;;;;;;4993939;28;20064;-82
2022/01/12 12:29:28;;;;;;;40.60;13.98;;;5.90;99.90;;;;;;5010332;28;20029;-81
2022/01/12 12:32:00;;;;;;;41.80;13.40;;;5.90;99.90;;;;;;5030296;28;20036;-81
2022/01/12 12:34:28;;;;;;;33.20;13.15;;;5.90;99.90;;;;;;5030375;28;20048;-81
2022/01/12 12:37:00;;;;;;;40.17;13.15;;;6.10;99.90;;;;;;5013860;28;20096;-81
2022/01/12 12:39:32;;;;;;;39.95;13.40;;;5.90;99.90;;;;;;4998034;28;20034;-81
2022/01/12 12:42:00;;;;;;;39.05;14.05;;;5.90;99.90;;;;;;5013027;28;20485;-81
2022/01/12 12:44:31;;;;;;;46.03;14.48;;;6.00;99.90;;;;;;5030414;28;20400;-81
2022/01/12 12:47:18;;;;;;;45.22;15.48;;;6.00;99.90;;;;;;5013737;28;20121;-81
2022/01/12 12:49:45;;;;;;;50.63;16.75;;;5.90;99.90;;;;;;5007685;28;20036;-81
2022/01/12 12:52:11;;;;;;;44.92;15.70;;;6.00;99.90;;;;;;4997556;28;20509;-81
2022/01/12 12:54:43;;;;;;;39.50;14.38;;;5.90;99.90;;;;;;5013857;28;20036;-81
2022/01/12 12:57:10;;;;;;;38.88;14.75;;;6.00;99.90;;;;;;4996512;28;20065;-81
2022/01/12 12:59:36;;;;;;;39.53;13.95;;;6.00;99.90;;;;;;5014127;28;20099;-81
2022/01/12 13:02:12;;;;;;;32.72;12.73;;;5.90;99.90;;;;;;5030314;28;20046;-82
2022/01/12 13:04:38;;;;;;;33.35;13.02;;;5.90;99.90;;;;;;4999257;28;20068;-82
2022/01/12 13:07:13;;;;;;;31.90;13.02;;;5.90;99.90;;;;;;5000871;28;20044;-82
2022/01/12 13:09:39;;;;;;;33.63;13.05;;;5.80;99.90;;;;;;5033786;28;20034;-82
2022/01/12 13:12:05;;;;;;;35.95;13.95;;;5.90;99.90;;;;;;5016517;28;20452;-82
2022/01/12 13:14:44;;;;;;;35.22;13.32;;;5.90;99.90;;;;;;5000953;28;20034;-81
2022/01/12 13:17:10;;;;;;;35.42;12.98;;;6.00;99.90;;;;;;5017173;28;20037;-81
2022/01/12 13:22:24;;;;;;;40.47;14.27;;;6.00;99.90;;;;;;5022821;28;20077;-81
2022/01/12 13:24:50;;;;;;;39.45;14.00;;;6.00;99.90;;;;;;5027818;28;20038;-82
2022/01/12 13:27:16;;;;;;;38.42;14.80;;;6.00;99.90;;;;;;4999959;28;20084;-81
2022/01/12 13:29:50;;;;;;;41.05;15.90;;;6.00;99.90;;;;;;5017299;28;20037;-81
2022/01/12 13:32:16;;;;;;;40.22;14.93;;;6.00;99.90;;;;;;5001635;28;20049;-81
2022/01/12 13:34:53;;;;;;;40.08;14.30;;;6.10;99.90;;;;;;5017400;28;20037;-81
2022/01/12 13:37:18;;;;;;;36.53;13.88;;;6.20;99.90;;;;;;5029364;28;20076;-81
2022/01/12 13:39:44;;;;;;;41.25;13.68;;;6.20;99.90;;;;;;5004051;28;20037;-81
2022/01/12 13:42:10;;;;;;;40.63;14.40;;;6.20;99.90;;;;;;5017126;28;20500;-81
2022/01/12 13:44:35;;;;;;;43.08;15.05;;;6.20;99.90;;;;;;5017902;28;20045;-81
2022/01/12 13:47:10;;;;;;;38.55;14.57;;;6.20;99.90;;;;;;4999659;28;20045;-81
2022/01/12 13:49:36;;;;;;;39.83;13.55;;;6.20;99.90;;;;;;5040805;28;20111;-81
2022/01/12 13:52:06;;;;;;;37.45;13.45;;;6.20;99.90;;;;;;5027238;28;20037;-80
2022/01/12 13:54:44;;;;;;;35.13;13.38;;;6.20;99.90;;;;;;5010386;28;20052;-81
2022/01/12 13:57:12;;;;;;;39.17;13.52;;;6.20;99.90;;;;;;5021146;28;20597;-81